sensor_id;sensor_type;location;lat;lon;timestamp;temperature;humidity
66088;DHT22;52872;52.994;6.940;2022-11-03T00:01:45;12.60;99.90
66088;DHT22;52872;52.994;6.940;2022-11-03T00:04:14;12.70;99.90
66088;DHT22;52872;52.994;6.940;2022-11-03T00:06:42;12.60;99.90
66088;DHT22;52872;52.994;6.940;2022-11-03T00:09:11;12.60;99.90
66088;DHT22;52872;52.994;6.940;2022-11-03T00:11:39;12.60;99.90
66088;DHT22;52872;52.994;6.940;2022-11-03T00:14:08;12.60;99.90
66088;DHT22;52872;52.994;6.940;2022-11-03T00:16:36;12.60;99.90
66088;DHT22;52872;52.994;6.940;2022-11-03T00:19:04;12.70;99.90
66088;DHT22;52872;52.994;6.940;2022-11-03T00:21:31;12.70;99.90
66088;DHT22;52872;52.994;6.940;2022-11-03T00:23:59;12.80;99.90
66088;DHT22;52872;52.994;6.940;2022-11-03T00:26:30;12.80;99.90
66088;DHT22;52872;52.994;6.940;2022-11-03T00:28:59;12.80;99.90
66088;DHT22;52872;52.994;6.940;2022-11-03T00:31:29;12.70;99.90
66088;DHT22;52872;52.994;6.940;2022-11-03T00:33:57;12.80;99.90
66088;DHT22;52872;52.994;6.940;2022-11-03T00:36:28;12.80;99.90
66088;DHT22;52872;52.994;6.940;2022-11-03T00:38:56;12.80;99.90
66088;DHT22;52872;52.994;6.940;2022-11-03T00:41:24;12.80;99.90
66088;DHT22;52872;52.994;6.940;2022-11-03T00:43:51;12.70;99.90
66088;DHT22;52872;52.994;6.940;2022-11-03T00:46:20;12.80;99.90
66088;DHT22;52872;52.994;6.940;2022-11-03T00:48:47;12.70;99.90
66088;DHT22;52872;52.994;6.940;2022-11-03T00:53:47;12.70;99.90
66088;DHT22;52872;52.994;6.940;2022-11-03T00:58:44;12.60;99.90
66088;DHT22;52872;52.994;6.940;2022-11-03T01:03:42;12.60;99.90
66088;DHT22;52872;52.994;6.940;2022-11-03T01:06:30;12.50;99.90
66088;DHT22;52872;52.994;6.940;2022-11-03T01:09:17;12.50;99.90
66088;DHT22;52872;52.994;6.940;2022-11-03T01:14:35;12.50;99.90
66088;DHT22;52872;52.994;6.940;2022-11-03T01:17:07;12.40;99.90
66088;DHT22;52872;52.994;6.940;2022-11-03T01:19:34;12.40;99.90
66088;DHT22;52872;52.994;6.940;2022-11-03T01:22:01;12.40;99.90
66088;DHT22;52872;52.994;6.940;2022-11-03T01:24:30;12.30;99.90
66088;DHT22;52872;52.994;6.940;2022-11-03T01:26:57;12.30;99.90
66088;DHT22;52872;52.994;6.940;2022-11-03T01:29:24;12.30;99.90
66088;DHT22;52872;52.994;6.940;2022-11-03T01:31:51;12.30;99.90
66088;DHT22;52872;52.994;6.940;2022-11-03T01:34:20;12.30;99.90
66088;DHT22;52872;52.994;6.940;2022-11-03T01:36:47;12.30;99.90
66088;DHT22;52872;52.994;6.940;2022-11-03T01:39:16;12.30;99.90
66088;DHT22;52872;52.994;6.940;2022-11-03T01:41:45;12.30;99.90
66088;DHT22;52872;52.994;6.940;2022-11-03T01:46:56;12.20;99.90
66088;DHT22;52872;52.994;6.940;2022-11-03T01:54:50;12.20;99.90
66088;DHT22;52872;52.994;6.940;2022-11-03T01:57:24;12.10;99.90
66088;DHT22;52872;52.994;6.940;2022-11-03T01:59:54;12.10;99.90
66088;DHT22;52872;52.994;6.940;2022-11-03T02:02:25;12.00;99.90
66088;DHT22;52872;52.994;6.940;2022-11-03T02:04:53;12.00;99.90
66088;DHT22;52872;52.994;6.940;2022-11-03T02:10:14;11.80;99.90
66088;DHT22;52872;52.994;6.940;2022-11-03T02:12:42;11.80;99.90
66088;DHT22;52872;52.994;6.940;2022-11-03T02:15:12;11.80;99.90
66088;DHT22;52872;52.994;6.940;2022-11-03T02:17:41;11.70;99.90
66088;DHT22;52872;52.994;6.940;2022-11-03T02:20:13;11.70;99.90
66088;DHT22;52872;52.994;6.940;2022-11-03T02:22:58;11.70;99.90
66088;DHT22;52872;52.994;6.940;2022-11-03T02:25:46;11.70;99.90
66088;DHT22;52872;52.994;6.940;2022-11-03T02:28:25;11.70;99.90
66088;DHT22;52872;52.994;6.940;2022-11-03T02:36:36;11.60;99.90
66088;DHT22;52872;52.994;6.940;2022-11-03T02:39:13;11.60;99.90
66088;DHT22;52872;52.994;6.940;2022-11-03T02:41:42;11.50;99.90
66088;DHT22;52872;52.994;6.940;2022-11-03T02:44:16;11.50;99.90
66088;DHT22;52872;52.994;6.940;2022-11-03T02:46:47;11.50;99.90
66088;DHT22;52872;52.994;6.940;2022-11-03T02:49:17;11.50;99.90
66088;DHT22;52872;52.994;6.940;2022-11-03T02:51:44;11.50;99.90
66088;DHT22;52872;52.994;6.940;2022-11-03T02:55:00;11.50;99.90
66088;DHT22;52872;52.994;6.940;2022-11-03T02:57:20;11.50;99.90
66088;DHT22;52872;52.994;6.940;2022-11-03T03:00:05;11.50;99.90
66088;DHT22;52872;52.994;6.940;2022-11-03T03:02:45;11.50;99.90
66088;DHT22;52872;52.994;6.940;2022-11-03T03:05:13;11.50;99.90
66088;DHT22;52872;52.994;6.940;2022-11-03T03:07:45;11.50;99.90
66088;DHT22;52872;52.994;6.940;2022-11-03T03:10:20;11.60;99.90
66088;DHT22;52872;52.994;6.940;2022-11-03T03:12:50;11.50;99.90
66088;DHT22;52872;52.994;6.940;2022-11-03T03:15:23;11.50;99.90
66088;DHT22;52872;52.994;6.940;2022-11-03T03:20:40;11.50;99.90
66088;DHT22;52872;52.994;6.940;2022-11-03T03:23:26;11.60;99.90
66088;DHT22;52872;52.994;6.940;2022-11-03T03:26:25;11.50;99.90
66088;DHT22;52872;52.994;6.940;2022-11-03T03:29:00;11.50;99.90
66088;DHT22;52872;52.994;6.940;2022-11-03T03:31:33;11.50;99.90
66088;DHT22;52872;52.994;6.940;2022-11-03T03:34:03;11.50;99.90
66088;DHT22;52872;52.994;6.940;2022-11-03T03:36:50;11.50;99.90
66088;DHT22;52872;52.994;6.940;2022-11-03T03:39:17;11.50;99.90
66088;DHT22;52872;52.994;6.940;2022-11-03T03:41:47;11.40;99.90
66088;DHT22;52872;52.994;6.940;2022-11-03T03:44:15;11.50;99.90
66088;DHT22;52872;52.994;6.940;2022-11-03T03:46:59;11.50;99.90
66088;DHT22;52872;52.994;6.940;2022-11-03T03:49:26;11.50;99.90
66088;DHT22;52872;52.994;6.940;2022-11-03T03:51:53;11.50;99.90
66088;DHT22;52872;52.994;6.940;2022-11-03T03:54:20;11.50;99.90
66088;DHT22;52872;52.994;6.940;2022-11-03T03:59:19;11.50;99.90
66088;DHT22;52872;52.994;6.940;2022-11-03T04:01:45;11.40;99.90
66088;DHT22;52872;52.994;6.940;2022-11-03T04:04:13;11.40;99.90
66088;DHT22;52872;52.994;6.940;2022-11-03T04:06:39;11.40;99.90
66088;DHT22;52872;52.994;6.940;2022-11-03T04:09:07;11.40;99.90
66088;DHT22;52872;52.994;6.940;2022-11-03T04:11:34;11.40;99.90
66088;DHT22;52872;52.994;6.940;2022-11-03T04:14:20;11.40;99.90
66088;DHT22;52872;52.994;6.940;2022-11-03T04:17:15;11.30;99.90
66088;DHT22;52872;52.994;6.940;2022-11-03T04:20:03;11.30;99.90
66088;DHT22;52872;52.994;6.940;2022-11-03T04:23:08;11.30;99.90
66088;DHT22;52872;52.994;6.940;2022-11-03T04:25:35;11.20;99.90
66088;DHT22;52872;52.994;6.940;2022-11-03T04:28:12;11.20;99.90
66088;DHT22;52872;52.994;6.940;2022-11-03T04:30:39;11.30;99.90
66088;DHT22;52872;52.994;6.940;2022-11-03T04:33:13;11.20;99.90
66088;DHT22;52872;52.994;6.940;2022-11-03T04:35:42;11.20;99.90
66088;DHT22;52872;52.994;6.940;2022-11-03T04:40:44;11.20;99.90
66088;DHT22;52872;52.994;6.940;2022-11-03T04:43:16;11.20;99.90
66088;DHT22;52872;52.994;6.940;2022-11-03T04:45:44;11.20;99.90
66088;DHT22;52872;52.994;6.940;2022-11-03T04:48:14;11.20;99.90
66088;DHT22;52872;52.994;6.940;2022-11-03T04:50:41;11.20;99.90
66088;DHT22;52872;52.994;6.940;2022-11-03T04:53:14;11.20;99.90
66088;DHT22;52872;52.994;6.940;2022-11-03T04:55:43;11.20;99.90
66088;DHT22;52872;52.994;6.940;2022-11-03T04:58:24;11.20;99.90
66088;DHT22;52872;52.994;6.940;2022-11-03T05:00:55;11.20;99.90
66088;DHT22;52872;52.994;6.940;2022-11-03T05:03:25;11.10;99.90
66088;DHT22;52872;52.994;6.940;2022-11-03T05:05:52;11.10;99.90
66088;DHT22;52872;52.994;6.940;2022-11-03T05:08:20;11.10;99.90
66088;DHT22;52872;52.994;6.940;2022-11-03T05:10:48;11.10;99.90
66088;DHT22;52872;52.994;6.940;2022-11-03T05:13:26;11.20;99.90
66088;DHT22;52872;52.994;6.940;2022-11-03T05:16:01;11.20;99.90
66088;DHT22;52872;52.994;6.940;2022-11-03T05:18:31;11.20;99.90
66088;DHT22;52872;52.994;6.940;2022-11-03T05:21:01;11.30;99.90
66088;DHT22;52872;52.994;6.940;2022-11-03T05:23:31;11.30;99.90
66088;DHT22;52872;52.994;6.940;2022-11-03T05:26:05;11.30;99.90
66088;DHT22;52872;52.994;6.940;2022-11-03T05:28:36;11.30;99.90
66088;DHT22;52872;52.994;6.940;2022-11-03T05:31:27;11.30;99.90
66088;DHT22;52872;52.994;6.940;2022-11-03T05:34:01;11.30;99.90
66088;DHT22;52872;52.994;6.940;2022-11-03T05:36:29;11.30;99.90
66088;DHT22;52872;52.994;6.940;2022-11-03T05:41:50;11.40;99.90
66088;DHT22;52872;52.994;6.940;2022-11-03T05:44:43;11.30;99.90
66088;DHT22;52872;52.994;6.940;2022-11-03T05:47:20;11.40;99.90
66088;DHT22;52872;52.994;6.940;2022-11-03T05:49:50;11.30;99.90
66088;DHT22;52872;52.994;6.940;2022-11-03T05:52:27;11.20;99.90
66088;DHT22;52872;52.994;6.940;2022-11-03T05:54:57;11.40;99.90
66088;DHT22;52872;52.994;6.940;2022-11-03T05:57:27;11.30;99.90
66088;DHT22;52872;52.994;6.940;2022-11-03T05:59:55;11.30;99.90
66088;DHT22;52872;52.994;6.940;2022-11-03T06:02:32;11.30;99.90
66088;DHT22;52872;52.994;6.940;2022-11-03T06:05:24;11.30;99.90
66088;DHT22;52872;52.994;6.940;2022-11-03T06:07:53;11.30;99.90
66088;DHT22;52872;52.994;6.940;2022-11-03T06:10:54;11.30;99.90
66088;DHT22;52872;52.994;6.940;2022-11-03T06:13:28;11.30;99.90
66088;DHT22;52872;52.994;6.940;2022-11-03T06:15:57;11.20;99.90
66088;DHT22;52872;52.994;6.940;2022-11-03T06:18:29;11.10;99.90
66088;DHT22;52872;52.994;6.940;2022-11-03T06:21:01;11.10;99.90
66088;DHT22;52872;52.994;6.940;2022-11-03T06:23:31;11.10;99.90
66088;DHT22;52872;52.994;6.940;2022-11-03T06:26:00;11.10;99.90
66088;DHT22;52872;52.994;6.940;2022-11-03T06:28:35;11.10;99.90
66088;DHT22;52872;52.994;6.940;2022-11-03T06:31:22;11.20;99.90
66088;DHT22;52872;52.994;6.940;2022-11-03T06:33:51;11.10;99.90
66088;DHT22;52872;52.994;6.940;2022-11-03T06:36:21;11.00;99.90
66088;DHT22;52872;52.994;6.940;2022-11-03T06:38:55;11.10;99.90
66088;DHT22;52872;52.994;6.940;2022-11-03T06:41:24;11.10;99.90
66088;DHT22;52872;52.994;6.940;2022-11-03T06:43:52;11.10;99.90
66088;DHT22;52872;52.994;6.940;2022-11-03T06:46:23;11.10;99.90
66088;DHT22;52872;52.994;6.940;2022-11-03T06:48:59;11.10;99.90
66088;DHT22;52872;52.994;6.940;2022-11-03T06:51:28;11.10;99.90
66088;DHT22;52872;52.994;6.940;2022-11-03T06:53:58;11.10;99.90
66088;DHT22;52872;52.994;6.940;2022-11-03T06:56:28;11.20;99.90
66088;DHT22;52872;52.994;6.940;2022-11-03T06:58:57;11.20;99.90
66088;DHT22;52872;52.994;6.940;2022-11-03T07:01:29;11.20;99.90
66088;DHT22;52872;52.994;6.940;2022-11-03T07:03:58;11.30;99.90
66088;DHT22;52872;52.994;6.940;2022-11-03T07:06:35;11.20;99.90
66088;DHT22;52872;52.994;6.940;2022-11-03T07:09:04;11.30;99.90
66088;DHT22;52872;52.994;6.940;2022-11-03T07:11:43;11.30;99.90
66088;DHT22;52872;52.994;6.940;2022-11-03T07:14:14;11.40;99.90
66088;DHT22;52872;52.994;6.940;2022-11-03T07:16:44;11.30;99.90
66088;DHT22;52872;52.994;6.940;2022-11-03T07:19:24;11.30;99.90
66088;DHT22;52872;52.994;6.940;2022-11-03T07:24:44;11.50;99.90
66088;DHT22;52872;52.994;6.940;2022-11-03T07:27:29;11.50;99.90
66088;DHT22;52872;52.994;6.940;2022-11-03T07:29:59;11.60;99.90
66088;DHT22;52872;52.994;6.940;2022-11-03T07:32:32;11.60;99.90
66088;DHT22;52872;52.994;6.940;2022-11-03T07:37:49;11.80;99.90
66088;DHT22;52872;52.994;6.940;2022-11-03T07:40:22;11.80;99.90
66088;DHT22;52872;52.994;6.940;2022-11-03T07:42:51;12.00;99.90
66088;DHT22;52872;52.994;6.940;2022-11-03T07:45:36;12.00;99.90
66088;DHT22;52872;52.994;6.940;2022-11-03T07:48:24;12.10;99.90
66088;DHT22;52872;52.994;6.940;2022-11-03T07:50:56;12.10;99.90
66088;DHT22;52872;52.994;6.940;2022-11-03T07:53:34;12.20;99.90
66088;DHT22;52872;52.994;6.940;2022-11-03T07:56:20;12.20;99.90
66088;DHT22;52872;52.994;6.940;2022-11-03T08:01:39;12.30;99.90
66088;DHT22;52872;52.994;6.940;2022-11-03T08:04:12;12.30;99.90
66088;DHT22;52872;52.994;6.940;2022-11-03T08:06:42;12.40;99.90
66088;DHT22;52872;52.994;6.940;2022-11-03T08:09:09;12.40;99.90
66088;DHT22;52872;52.994;6.940;2022-11-03T08:11:36;12.50;99.90
66088;DHT22;52872;52.994;6.940;2022-11-03T08:14:03;12.60;99.90
66088;DHT22;52872;52.994;6.940;2022-11-03T08:16:30;12.70;99.90
66088;DHT22;52872;52.994;6.940;2022-11-03T08:18:57;12.70;99.90
66088;DHT22;52872;52.994;6.940;2022-11-03T08:21:24;12.80;99.90
66088;DHT22;52872;52.994;6.940;2022-11-03T08:23:51;12.80;99.90
66088;DHT22;52872;52.994;6.940;2022-11-03T08:26:18;12.90;99.90
66088;DHT22;52872;52.994;6.940;2022-11-03T08:28:46;12.90;99.90
66088;DHT22;52872;52.994;6.940;2022-11-03T08:31:13;13.00;99.90
66088;DHT22;52872;52.994;6.940;2022-11-03T08:33:40;13.10;99.90
66088;DHT22;52872;52.994;6.940;2022-11-03T08:36:07;13.20;99.90
66088;DHT22;52872;52.994;6.940;2022-11-03T08:38:35;13.30;99.90
66088;DHT22;52872;52.994;6.940;2022-11-03T08:41:02;13.40;99.90
66088;DHT22;52872;52.994;6.940;2022-11-03T08:43:30;13.40;99.90
66088;DHT22;52872;52.994;6.940;2022-11-03T08:45:57;13.50;99.90
66088;DHT22;52872;52.994;6.940;2022-11-03T08:48:28;13.50;99.90
66088;DHT22;52872;52.994;6.940;2022-11-03T08:50:55;13.60;99.90
66088;DHT22;52872;52.994;6.940;2022-11-03T08:53:26;13.60;99.90
66088;DHT22;52872;52.994;6.940;2022-11-03T08:55:53;13.70;99.90
66088;DHT22;52872;52.994;6.940;2022-11-03T08:58:21;13.70;99.90
66088;DHT22;52872;52.994;6.940;2022-11-03T09:00:48;13.70;99.90
66088;DHT22;52872;52.994;6.940;2022-11-03T09:03:16;13.80;99.90
66088;DHT22;52872;52.994;6.940;2022-11-03T09:05:43;13.90;99.90
66088;DHT22;52872;52.994;6.940;2022-11-03T09:08:10;14.00;99.90
66088;DHT22;52872;52.994;6.940;2022-11-03T09:10:57;14.20;99.90
66088;DHT22;52872;52.994;6.940;2022-11-03T09:13:24;14.20;99.90
66088;DHT22;52872;52.994;6.940;2022-11-03T09:15:51;14.40;99.90
66088;DHT22;52872;52.994;6.940;2022-11-03T09:18:18;14.50;99.90
66088;DHT22;52872;52.994;6.940;2022-11-03T09:20:45;14.50;99.90
66088;DHT22;52872;52.994;6.940;2022-11-03T09:23:12;14.70;99.90
66088;DHT22;52872;52.994;6.940;2022-11-03T09:25:39;14.70;99.90
66088;DHT22;52872;52.994;6.940;2022-11-03T09:28:06;14.80;99.90
66088;DHT22;52872;52.994;6.940;2022-11-03T09:30:33;14.90;99.90
66088;DHT22;52872;52.994;6.940;2022-11-03T09:33:00;14.90;99.90
66088;DHT22;52872;52.994;6.940;2022-11-03T09:35:27;15.10;99.90
66088;DHT22;52872;52.994;6.940;2022-11-03T09:37:54;15.10;99.90
66088;DHT22;52872;52.994;6.940;2022-11-03T09:40:20;15.20;99.90
66088;DHT22;52872;52.994;6.940;2022-11-03T09:42:47;15.20;99.90
66088;DHT22;52872;52.994;6.940;2022-11-03T09:45:14;15.40;99.90
66088;DHT22;52872;52.994;6.940;2022-11-03T09:47:42;15.40;99.90
66088;DHT22;52872;52.994;6.940;2022-11-03T09:50:15;15.50;99.90
66088;DHT22;52872;52.994;6.940;2022-11-03T09:52:43;15.60;99.90
66088;DHT22;52872;52.994;6.940;2022-11-03T09:55:19;15.70;99.90
66088;DHT22;52872;52.994;6.940;2022-11-03T09:57:47;15.70;99.90
66088;DHT22;52872;52.994;6.940;2022-11-03T10:00:18;15.90;99.90
66088;DHT22;52872;52.994;6.940;2022-11-03T10:02:46;16.00;99.90
66088;DHT22;52872;52.994;6.940;2022-11-03T10:05:18;16.10;99.90
66088;DHT22;52872;52.994;6.940;2022-11-03T10:07:46;16.30;99.90
66088;DHT22;52872;52.994;6.940;2022-11-03T10:10:19;16.30;99.90
66088;DHT22;52872;52.994;6.940;2022-11-03T10:12:48;16.50;99.90
66088;DHT22;52872;52.994;6.940;2022-11-03T10:15:16;16.60;99.90
66088;DHT22;52872;52.994;6.940;2022-11-03T10:17:44;16.60;99.90
66088;DHT22;52872;52.994;6.940;2022-11-03T10:20:14;16.60;99.90
66088;DHT22;52872;52.994;6.940;2022-11-03T10:22:42;16.60;99.90
66088;DHT22;52872;52.994;6.940;2022-11-03T10:25:33;16.50;99.90
66088;DHT22;52872;52.994;6.940;2022-11-03T10:28:20;16.40;99.90
66088;DHT22;52872;52.994;6.940;2022-11-03T10:31:00;16.40;99.90
66088;DHT22;52872;52.994;6.940;2022-11-03T10:33:54;16.40;99.90
66088;DHT22;52872;52.994;6.940;2022-11-03T10:36:25;16.50;99.90
66088;DHT22;52872;52.994;6.940;2022-11-03T10:38:52;16.50;99.90
66088;DHT22;52872;52.994;6.940;2022-11-03T10:46:37;16.90;99.90
66088;DHT22;52872;52.994;6.940;2022-11-03T10:49:17;16.80;99.90
66088;DHT22;52872;52.994;6.940;2022-11-03T10:51:50;17.00;99.90
66088;DHT22;52872;52.994;6.940;2022-11-03T10:54:22;16.90;99.90
66088;DHT22;52872;52.994;6.940;2022-11-03T10:56:50;16.90;99.90
66088;DHT22;52872;52.994;6.940;2022-11-03T10:59:21;17.00;99.90
66088;DHT22;52872;52.994;6.940;2022-11-03T11:01:50;17.00;99.90
66088;DHT22;52872;52.994;6.940;2022-11-03T11:04:18;17.00;99.90
66088;DHT22;52872;52.994;6.940;2022-11-03T11:06:46;17.10;99.90
66088;DHT22;52872;52.994;6.940;2022-11-03T11:09:19;17.20;99.90
66088;DHT22;52872;52.994;6.940;2022-11-03T11:12:18;17.10;99.90
66088;DHT22;52872;52.994;6.940;2022-11-03T11:14:59;17.10;99.90
66088;DHT22;52872;52.994;6.940;2022-11-03T11:17:46;17.00;99.90
66088;DHT22;52872;52.994;6.940;2022-11-03T11:22:47;17.10;99.90
66088;DHT22;52872;52.994;6.940;2022-11-03T11:25:17;17.10;99.90
66088;DHT22;52872;52.994;6.940;2022-11-03T11:32:59;17.20;99.90
66088;DHT22;52872;52.994;6.940;2022-11-03T11:37:53;17.10;99.90
66088;DHT22;52872;52.994;6.940;2022-11-03T11:48:35;17.30;99.90
66088;DHT22;52872;52.994;6.940;2022-11-03T11:51:02;17.20;99.90
66088;DHT22;52872;52.994;6.940;2022-11-03T11:53:38;17.10;99.90
66088;DHT22;52872;52.994;6.940;2022-11-03T11:56:11;17.10;99.90
66088;DHT22;52872;52.994;6.940;2022-11-03T11:58:53;17.00;99.90
66088;DHT22;52872;52.994;6.940;2022-11-03T12:01:29;17.00;99.90
66088;DHT22;52872;52.994;6.940;2022-11-03T12:03:59;17.00;99.90
66088;DHT22;52872;52.994;6.940;2022-11-03T12:06:36;17.00;99.90
66088;DHT22;52872;52.994;6.940;2022-11-03T12:11:47;17.10;99.90
66088;DHT22;52872;52.994;6.940;2022-11-03T12:17:37;17.10;99.90
66088;DHT22;52872;52.994;6.940;2022-11-03T12:22:38;17.00;99.90
66088;DHT22;52872;52.994;6.940;2022-11-03T12:25:32;17.00;99.80
66088;DHT22;52872;52.994;6.940;2022-11-03T12:28:00;17.10;99.90
66088;DHT22;52872;52.994;6.940;2022-11-03T12:30:27;17.00;99.90
66088;DHT22;52872;52.994;6.940;2022-11-03T12:32:54;17.00;99.90
66088;DHT22;52872;52.994;6.940;2022-11-03T12:35:21;16.90;99.90
66088;DHT22;52872;52.994;6.940;2022-11-03T12:37:48;16.90;99.90
66088;DHT22;52872;52.994;6.940;2022-11-03T12:40:15;16.80;99.90
66088;DHT22;52872;52.994;6.940;2022-11-03T12:42:42;16.80;99.90
66088;DHT22;52872;52.994;6.940;2022-11-03T12:45:09;16.80;99.90
66088;DHT22;52872;52.994;6.940;2022-11-03T12:47:36;16.80;99.90
66088;DHT22;52872;52.994;6.940;2022-11-03T12:50:03;16.70;99.90
66088;DHT22;52872;52.994;6.940;2022-11-03T12:52:30;16.70;99.90
66088;DHT22;52872;52.994;6.940;2022-11-03T12:54:57;16.60;99.90
66088;DHT22;52872;52.994;6.940;2022-11-03T12:57:24;16.60;99.90
66088;DHT22;52872;52.994;6.940;2022-11-03T12:59:50;16.50;99.90
66088;DHT22;52872;52.994;6.940;2022-11-03T13:02:18;16.50;99.90
66088;DHT22;52872;52.994;6.940;2022-11-03T13:04:45;16.50;99.90
66088;DHT22;52872;52.994;6.940;2022-11-03T13:07:11;16.50;99.90
66088;DHT22;52872;52.994;6.940;2022-11-03T13:09:38;16.50;99.90
66088;DHT22;52872;52.994;6.940;2022-11-03T13:12:05;16.40;99.90
66088;DHT22;52872;52.994;6.940;2022-11-03T13:14:50;16.50;99.90
66088;DHT22;52872;52.994;6.940;2022-11-03T13:17:17;16.50;99.90
66088;DHT22;52872;52.994;6.940;2022-11-03T13:19:44;16.50;99.90
66088;DHT22;52872;52.994;6.940;2022-11-03T13:22:11;16.50;99.90
66088;DHT22;52872;52.994;6.940;2022-11-03T13:24:38;16.40;99.90
66088;DHT22;52872;52.994;6.940;2022-11-03T13:27:05;16.50;99.90
66088;DHT22;52872;52.994;6.940;2022-11-03T13:29:32;16.50;99.90
66088;DHT22;52872;52.994;6.940;2022-11-03T13:32:04;16.40;99.90
66088;DHT22;52872;52.994;6.940;2022-11-03T13:34:31;16.50;99.90
66088;DHT22;52872;52.994;6.940;2022-11-03T13:36:58;16.40;99.90
66088;DHT22;52872;52.994;6.940;2022-11-03T13:39:26;16.50;99.90
66088;DHT22;52872;52.994;6.940;2022-11-03T13:41:52;16.40;99.90
66088;DHT22;52872;52.994;6.940;2022-11-03T13:44:19;16.40;99.90
66088;DHT22;52872;52.994;6.940;2022-11-03T13:46:46;16.40;99.90
66088;DHT22;52872;52.994;6.940;2022-11-03T13:49:13;16.40;99.90
66088;DHT22;52872;52.994;6.940;2022-11-03T13:52:01;16.40;99.90
66088;DHT22;52872;52.994;6.940;2022-11-03T13:54:28;16.50;99.90
66088;DHT22;52872;52.994;6.940;2022-11-03T13:57:15;16.60;99.90
66088;DHT22;52872;52.994;6.940;2022-11-03T14:00:05;16.60;99.90
66088;DHT22;52872;52.994;6.940;2022-11-03T14:02:39;16.70;99.90
66088;DHT22;52872;52.994;6.940;2022-11-03T14:05:26;16.70;99.80
66088;DHT22;52872;52.994;6.940;2022-11-03T14:07:53;16.60;99.70
66088;DHT22;52872;52.994;6.940;2022-11-03T14:10:20;16.70;99.70
66088;DHT22;52872;52.994;6.940;2022-11-03T14:12:47;16.70;99.70
66088;DHT22;52872;52.994;6.940;2022-11-03T14:15:14;16.60;99.50
66088;DHT22;52872;52.994;6.940;2022-11-03T14:17:41;16.60;99.60
66088;DHT22;52872;52.994;6.940;2022-11-03T14:20:10;16.60;99.90
66088;DHT22;52872;52.994;6.940;2022-11-03T14:22:38;16.50;99.80
66088;DHT22;52872;52.994;6.940;2022-11-03T14:25:06;16.40;99.60
66088;DHT22;52872;52.994;6.940;2022-11-03T14:27:33;16.40;99.90
66088;DHT22;52872;52.994;6.940;2022-11-03T14:30:00;16.30;99.90
66088;DHT22;52872;52.994;6.940;2022-11-03T14:32:27;16.20;99.90
66088;DHT22;52872;52.994;6.940;2022-11-03T14:34:54;16.10;99.90
66088;DHT22;52872;52.994;6.940;2022-11-03T14:37:21;16.10;99.90
66088;DHT22;52872;52.994;6.940;2022-11-03T14:39:50;16.20;99.90
66088;DHT22;52872;52.994;6.940;2022-11-03T14:42:17;16.10;99.90
66088;DHT22;52872;52.994;6.940;2022-11-03T14:44:45;16.10;99.90
66088;DHT22;52872;52.994;6.940;2022-11-03T14:47:15;16.00;99.90
66088;DHT22;52872;52.994;6.940;2022-11-03T14:49:43;16.00;99.90
66088;DHT22;52872;52.994;6.940;2022-11-03T14:52:11;15.90;99.90
66088;DHT22;52872;52.994;6.940;2022-11-03T14:54:38;15.90;99.90
66088;DHT22;52872;52.994;6.940;2022-11-03T14:57:06;15.80;99.90
66088;DHT22;52872;52.994;6.940;2022-11-03T14:59:33;15.80;99.90
66088;DHT22;52872;52.994;6.940;2022-11-03T15:02:01;15.80;99.90
66088;DHT22;52872;52.994;6.940;2022-11-03T15:04:29;15.80;99.90
66088;DHT22;52872;52.994;6.940;2022-11-03T15:06:56;15.80;99.90
66088;DHT22;52872;52.994;6.940;2022-11-03T15:09:23;15.80;99.90
66088;DHT22;52872;52.994;6.940;2022-11-03T15:11:50;15.80;99.90
66088;DHT22;52872;52.994;6.940;2022-11-03T15:14:16;15.80;99.90
66088;DHT22;52872;52.994;6.940;2022-11-03T15:16:43;15.80;99.90
66088;DHT22;52872;52.994;6.940;2022-11-03T15:19:11;15.80;99.90
66088;DHT22;52872;52.994;6.940;2022-11-03T15:21:38;15.70;99.90
66088;DHT22;52872;52.994;6.940;2022-11-03T15:24:06;15.70;99.90
66088;DHT22;52872;52.994;6.940;2022-11-03T15:26:53;15.60;99.90
66088;DHT22;52872;52.994;6.940;2022-11-03T15:29:20;15.60;99.90
66088;DHT22;52872;52.994;6.940;2022-11-03T15:31:49;15.50;99.90
66088;DHT22;52872;52.994;6.940;2022-11-03T15:34:16;15.50;99.90
66088;DHT22;52872;52.994;6.940;2022-11-03T15:36:43;15.50;99.90
66088;DHT22;52872;52.994;6.940;2022-11-03T15:39:10;15.40;99.90
66088;DHT22;52872;52.994;6.940;2022-11-03T15:41:38;15.40;99.90
66088;DHT22;52872;52.994;6.940;2022-11-03T15:44:05;15.40;99.90
66088;DHT22;52872;52.994;6.940;2022-11-03T15:46:32;15.40;99.90
66088;DHT22;52872;52.994;6.940;2022-11-03T15:49:01;15.40;99.90
66088;DHT22;52872;52.994;6.940;2022-11-03T15:51:28;15.40;99.90
66088;DHT22;52872;52.994;6.940;2022-11-03T15:53:55;15.30;99.90
66088;DHT22;52872;52.994;6.940;2022-11-03T15:56:25;15.30;99.90
66088;DHT22;52872;52.994;6.940;2022-11-03T15:58:52;15.30;99.90
66088;DHT22;52872;52.994;6.940;2022-11-03T16:01:19;15.20;99.90
66088;DHT22;52872;52.994;6.940;2022-11-03T16:03:47;15.20;99.90
66088;DHT22;52872;52.994;6.940;2022-11-03T16:06:14;15.20;99.90
66088;DHT22;52872;52.994;6.940;2022-11-03T16:08:41;15.20;99.90
66088;DHT22;52872;52.994;6.940;2022-11-03T16:11:08;15.20;99.90
66088;DHT22;52872;52.994;6.940;2022-11-03T16:13:35;15.20;99.90
66088;DHT22;52872;52.994;6.940;2022-11-03T16:16:01;15.20;99.90
66088;DHT22;52872;52.994;6.940;2022-11-03T16:18:29;15.10;99.90
66088;DHT22;52872;52.994;6.940;2022-11-03T16:20:56;15.10;99.90
66088;DHT22;52872;52.994;6.940;2022-11-03T16:23:23;15.10;99.90
66088;DHT22;52872;52.994;6.940;2022-11-03T16:25:50;15.10;99.90
66088;DHT22;52872;52.994;6.940;2022-11-03T16:28:17;15.10;99.90
66088;DHT22;52872;52.994;6.940;2022-11-03T16:30:44;15.10;99.90
66088;DHT22;52872;52.994;6.940;2022-11-03T16:33:15;15.10;99.90
66088;DHT22;52872;52.994;6.940;2022-11-03T16:35:42;15.10;99.90
66088;DHT22;52872;52.994;6.940;2022-11-03T16:38:09;15.10;99.90
66088;DHT22;52872;52.994;6.940;2022-11-03T16:40:36;15.00;99.90
66088;DHT22;52872;52.994;6.940;2022-11-03T16:43:03;15.10;99.90
66088;DHT22;52872;52.994;6.940;2022-11-03T16:45:30;15.10;99.90
66088;DHT22;52872;52.994;6.940;2022-11-03T16:48:03;15.10;99.90
66088;DHT22;52872;52.994;6.940;2022-11-03T16:50:31;15.00;99.90
66088;DHT22;52872;52.994;6.940;2022-11-03T16:52:58;15.00;99.90
66088;DHT22;52872;52.994;6.940;2022-11-03T16:55:25;15.00;99.90
66088;DHT22;52872;52.994;6.940;2022-11-03T16:57:52;15.00;99.90
66088;DHT22;52872;52.994;6.940;2022-11-03T17:00:19;15.00;99.90
66088;DHT22;52872;52.994;6.940;2022-11-03T17:02:46;15.00;99.90
66088;DHT22;52872;52.994;6.940;2022-11-03T17:05:14;15.00;99.90
66088;DHT22;52872;52.994;6.940;2022-11-03T17:07:44;15.00;99.90
66088;DHT22;52872;52.994;6.940;2022-11-03T17:10:17;14.90;99.90
66088;DHT22;52872;52.994;6.940;2022-11-03T17:12:44;14.90;99.90